sensor_id;sensor_type;location;lat;lon;timestamp;pressure;altitude;pressure_sealevel;temperature;humidity
38780;BME280;29273;49.962;9.768;2022-10-31T00:00:24;100280.19;;;15.55;66.39
38780;BME280;29273;49.962;9.768;2022-10-31T00:02:49;100276.72;;;15.54;66.22
38780;BME280;29273;49.962;9.768;2022-10-31T00:05:15;100282.03;;;15.54;66.21
38780;BME280;29273;49.962;9.768;2022-10-31T00:07:41;100280.41;;;15.53;66.20
38780;BME280;29273;49.962;9.768;2022-10-31T00:10:07;100283.91;;;15.54;66.37
38780;BME280;29273;49.962;9.768;2022-10-31T00:12:32;100278.78;;;15.52;66.20
38780;BME280;29273;49.962;9.768;2022-10-31T00:14:58;100283.53;;;15.50;66.32
38780;BME280;29273;49.962;9.768;2022-10-31T00:17:23;100283.75;;;15.49;65.87
38780;BME280;29273;49.962;9.768;2022-10-31T00:19:49;100278.44;;;15.49;66.12
38780;BME280;29273;49.962;9.768;2022-10-31T00:22:14;100278.66;;;15.47;65.65
38780;BME280;29273;49.962;9.768;2022-10-31T00:24:40;100284.19;;;15.46;65.79
38780;BME280;29273;49.962;9.768;2022-10-31T00:27:05;100287.09;;;15.44;65.89
38780;BME280;29273;49.962;9.768;2022-10-31T00:29:31;100283.00;;;15.42;65.55
38780;BME280;29273;49.962;9.768;2022-10-31T00:31:56;100286.72;;;15.41;65.45
38780;BME280;29273;49.962;9.768;2022-10-31T00:34:22;100294.13;;;15.39;65.47
38780;BME280;29273;49.962;9.768;2022-10-31T00:36:47;100289.03;;;15.37;65.26
38780;BME280;29273;49.962;9.768;2022-10-31T00:39:13;100283.06;;;15.35;65.24
38780;BME280;29273;49.962;9.768;2022-10-31T00:41:39;100282.47;;;15.33;65.41
38780;BME280;29273;49.962;9.768;2022-10-31T00:44:11;100279.56;;;15.16;65.78
38780;BME280;29273;49.962;9.768;2022-10-31T00:46:36;100284.19;;;15.27;65.36
38780;BME280;29273;49.962;9.768;2022-10-31T00:49:02;100281.53;;;15.27;65.19
38780;BME280;29273;49.962;9.768;2022-10-31T00:51:27;100285.22;;;15.26;64.88
38780;BME280;29273;49.962;9.768;2022-10-31T00:53:53;100286.25;;;15.25;65.06
38780;BME280;29273;49.962;9.768;2022-10-31T00:56:18;100278.69;;;15.22;65.09
38780;BME280;29273;49.962;9.768;2022-10-31T00:58:44;100278.69;;;15.22;65.59
38780;BME280;29273;49.962;9.768;2022-10-31T01:01:09;100281.38;;;15.22;65.32
38780;BME280;29273;49.962;9.768;2022-10-31T01:03:35;100285.06;;;15.21;65.41
38780;BME280;29273;49.962;9.768;2022-10-31T01:06:04;100279.28;;;15.24;65.53
38780;BME280;29273;49.962;9.768;2022-10-31T01:08:32;100285.06;;;15.21;65.38
38780;BME280;29273;49.962;9.768;2022-10-31T01:13:28;100288.97;;;15.18;65.51
38780;BME280;29273;49.962;9.768;2022-10-31T01:15:56;100284.25;;;15.21;65.62
38780;BME280;29273;49.962;9.768;2022-10-31T01:18:21;100284.69;;;15.17;65.42
38780;BME280;29273;49.962;9.768;2022-10-31T01:21:00;100291.22;;;15.22;65.07
38780;BME280;29273;49.962;9.768;2022-10-31T01:23:26;100290.25;;;15.16;64.98
38780;BME280;29273;49.962;9.768;2022-10-31T01:26:02;100284.25;;;15.21;64.70
38780;BME280;29273;49.962;9.768;2022-10-31T01:28:28;100280.00;;;15.13;65.01
38780;BME280;29273;49.962;9.768;2022-10-31T01:30:53;100287.44;;;15.11;65.20
38780;BME280;29273;49.962;9.768;2022-10-31T01:33:19;100285.78;;;15.10;65.17
38780;BME280;29273;49.962;9.768;2022-10-31T01:35:44;100290.53;;;15.08;64.97
38780;BME280;29273;49.962;9.768;2022-10-31T01:38:10;100289.72;;;15.07;64.93
38780;BME280;29273;49.962;9.768;2022-10-31T01:40:35;100281.09;;;15.05;65.28
38780;BME280;29273;49.962;9.768;2022-10-31T01:43:01;100279.50;;;15.04;65.27
38780;BME280;29273;49.962;9.768;2022-10-31T01:45:27;100275.19;;;15.03;65.11
38780;BME280;29273;49.962;9.768;2022-10-31T01:47:52;100278.91;;;15.02;64.88
38780;BME280;29273;49.962;9.768;2022-10-31T01:50:28;100284.38;;;15.07;64.84
38780;BME280;29273;49.962;9.768;2022-10-31T01:52:56;100277.25;;;15.01;64.79
38780;BME280;29273;49.962;9.768;2022-10-31T01:55:44;100287.28;;;15.06;64.86
38780;BME280;29273;49.962;9.768;2022-10-31T01:58:18;100283.97;;;15.04;64.72
38780;BME280;29273;49.962;9.768;2022-10-31T02:00:46;100288.69;;;14.83;65.33
38780;BME280;29273;49.962;9.768;2022-10-31T02:03:15;100290.66;;;14.94;64.78
38780;BME280;29273;49.962;9.768;2022-10-31T02:05:42;100284.50;;;14.94;64.51
38780;BME280;29273;49.962;9.768;2022-10-31T02:08:15;100275.44;;;14.95;64.27
38780;BME280;29273;49.962;9.768;2022-10-31T02:10:42;100286.75;;;14.90;64.61
38780;BME280;29273;49.962;9.768;2022-10-31T02:13:09;100287.22;;;14.87;64.17
38780;BME280;29273;49.962;9.768;2022-10-31T02:15:44;100294.19;;;14.88;64.36
38780;BME280;29273;49.962;9.768;2022-10-31T02:18:11;100294.22;;;14.82;64.40
38780;BME280;29273;49.962;9.768;2022-10-31T02:26:22;100297.31;;;14.78;64.35
38780;BME280;29273;49.962;9.768;2022-10-31T02:31:56;100296.34;;;14.73;64.19
38780;BME280;29273;49.962;9.768;2022-10-31T02:34:27;100288.63;;;14.65;64.43
38780;BME280;29273;49.962;9.768;2022-10-31T02:37:16;100289.00;;;14.68;64.34
38780;BME280;29273;49.962;9.768;2022-10-31T02:43:40;100287.19;;;14.62;64.14
38780;BME280;29273;49.962;9.768;2022-10-31T02:46:19;100281.44;;;14.58;64.45
38780;BME280;29273;49.962;9.768;2022-10-31T02:48:51;100280.88;;;14.56;64.42
38780;BME280;29273;49.962;9.768;2022-10-31T02:51:18;100287.66;;;14.52;64.34
38780;BME280;29273;49.962;9.768;2022-10-31T02:53:46;100286.25;;;14.50;64.60
38780;BME280;29273;49.962;9.768;2022-10-31T02:56:13;100282.75;;;14.49;64.58
38780;BME280;29273;49.962;9.768;2022-10-31T02:58:42;100285.59;;;14.54;64.94
38780;BME280;29273;49.962;9.768;2022-10-31T03:01:23;100280.28;;;14.54;64.56
38780;BME280;29273;49.962;9.768;2022-10-31T03:09:17;100286.03;;;14.51;64.30
38780;BME280;29273;49.962;9.768;2022-10-31T03:12:43;100283.34;;;14.51;64.60
38780;BME280;29273;49.962;9.768;2022-10-31T03:14:50;100289.72;;;14.50;64.82
38780;BME280;29273;49.962;9.768;2022-10-31T03:17:33;100287.88;;;14.51;64.66
38780;BME280;29273;49.962;9.768;2022-10-31T03:20:03;100286.44;;;14.48;64.82
38780;BME280;29273;49.962;9.768;2022-10-31T03:22:31;100285.66;;;14.48;64.77
38780;BME280;29273;49.962;9.768;2022-10-31T03:25:00;100292.59;;;14.49;64.68
38780;BME280;29273;49.962;9.768;2022-10-31T03:27:30;100286.25;;;14.50;65.07
38780;BME280;29273;49.962;9.768;2022-10-31T03:30:01;100283.19;;;14.46;65.16
38780;BME280;29273;49.962;9.768;2022-10-31T03:32:35;100286.25;;;14.50;64.83
38780;BME280;29273;49.962;9.768;2022-10-31T03:35:06;100282.75;;;14.49;64.70
38780;BME280;29273;49.962;9.768;2022-10-31T03:37:34;100288.09;;;14.49;64.80
38780;BME280;29273;49.962;9.768;2022-10-31T03:40:02;100293.22;;;14.51;64.83
38780;BME280;29273;49.962;9.768;2022-10-31T03:42:34;100284.59;;;14.49;64.69
38780;BME280;29273;49.962;9.768;2022-10-31T03:45:07;100282.56;;;14.51;64.59
38780;BME280;29273;49.962;9.768;2022-10-31T03:47:36;100295.25;;;14.49;64.68
38780;BME280;29273;49.962;9.768;2022-10-31T03:50:05;100292.00;;;14.47;64.96
38780;BME280;29273;49.962;9.768;2022-10-31T03:52:42;100291.34;;;14.51;64.44
38780;BME280;29273;49.962;9.768;2022-10-31T03:55:19;100293.22;;;14.51;64.84
38780;BME280;29273;49.962;9.768;2022-10-31T03:57:59;100300.38;;;14.50;64.95
38780;BME280;29273;49.962;9.768;2022-10-31T04:00:27;100299.59;;;14.43;64.73
38780;BME280;29273;49.962;9.768;2022-10-31T04:03:25;100303.25;;;14.49;64.87
38780;BME280;29273;49.962;9.768;2022-10-31T04:05:59;100298.97;;;14.48;64.85
38780;BME280;29273;49.962;9.768;2022-10-31T04:08:30;100298.16;;;14.47;64.94
38780;BME280;29273;49.962;9.768;2022-10-31T04:10:59;100307.56;;;14.50;64.77
38780;BME280;29273;49.962;9.768;2022-10-31T04:13:30;100303.03;;;14.50;64.69
38780;BME280;29273;49.962;9.768;2022-10-31T04:16:03;100301.03;;;14.46;65.04
38780;BME280;29273;49.962;9.768;2022-10-31T04:18:29;100295.72;;;14.46;65.06
38780;BME280;29273;49.962;9.768;2022-10-31T04:21:06;100300.16;;;14.52;64.69
38780;BME280;29273;49.962;9.768;2022-10-31T04:23:33;100298.16;;;14.47;64.95
38780;BME280;29273;49.962;9.768;2022-10-31T04:26:03;100291.41;;;14.44;64.65
38780;BME280;29273;49.962;9.768;2022-10-31T04:28:29;100288.72;;;14.44;64.45
38780;BME280;29273;49.962;9.768;2022-10-31T04:30:56;100281.53;;;14.45;64.52
38780;BME280;29273;49.962;9.768;2022-10-31T04:33:21;100287.09;;;14.43;64.39
38780;BME280;29273;49.962;9.768;2022-10-31T04:35:47;100286.28;;;14.43;64.54
38780;BME280;29273;49.962;9.768;2022-10-31T04:38:13;100275.63;;;14.43;64.59
38780;BME280;29273;49.962;9.768;2022-10-31T04:40:39;100280.94;;;14.43;64.45
38780;BME280;29273;49.962;9.768;2022-10-31T04:43:23;100278.72;;;14.40;63.99
38780;BME280;29273;49.962;9.768;2022-10-31T04:45:49;100276.25;;;14.38;64.06
38780;BME280;29273;49.962;9.768;2022-10-31T04:48:14;100272.19;;;14.36;63.98
38780;BME280;29273;49.962;9.768;2022-10-31T04:50:43;100276.91;;;14.34;64.11
38780;BME280;29273;49.962;9.768;2022-10-31T04:53:08;100276.31;;;14.32;63.85
38780;BME280;29273;49.962;9.768;2022-10-31T04:55:43;100273.25;;;14.28;64.03
38780;BME280;29273;49.962;9.768;2022-10-31T04:58:17;100275.31;;;14.26;63.65
38780;BME280;29273;49.962;9.768;2022-10-31T05:00:43;100281.69;;;14.25;63.68
38780;BME280;29273;49.962;9.768;2022-10-31T05:03:08;100274.09;;;14.22;63.95
38780;BME280;29273;49.962;9.768;2022-10-31T05:05:34;100276.97;;;14.20;63.76
38780;BME280;29273;49.962;9.768;2022-10-31T05:08:02;100271.06;;;14.18;63.93
38780;BME280;29273;49.962;9.768;2022-10-31T05:10:30;100269.66;;;14.16;63.61
38780;BME280;29273;49.962;9.768;2022-10-31T05:13:00;100267.81;;;14.16;63.71
38780;BME280;29273;49.962;9.768;2022-10-31T05:15:49;100268.44;;;14.12;63.73
38780;BME280;29273;49.962;9.768;2022-10-31T05:18:33;100269.06;;;14.07;63.44
38780;BME280;29273;49.962;9.768;2022-10-31T05:21:17;100271.97;;;14.05;63.43
38780;BME280;29273;49.962;9.768;2022-10-31T05:23:47;100270.53;;;14.03;63.43
38780;BME280;29273;49.962;9.768;2022-10-31T05:26:13;100269.53;;;14.04;63.42
38780;BME280;29273;49.962;9.768;2022-10-31T05:28:39;100261.94;;;14.01;63.49
38780;BME280;29273;49.962;9.768;2022-10-31T05:31:05;100263.97;;;13.99;63.29
38780;BME280;29273;49.962;9.768;2022-10-31T05:33:31;100266.66;;;13.99;63.22
38780;BME280;29273;49.962;9.768;2022-10-31T05:36:19;100268.72;;;13.97;63.11
38780;BME280;29273;49.962;9.768;2022-10-31T05:38:53;100262.78;;;13.95;63.26
38780;BME280;29273;49.962;9.768;2022-10-31T05:41:23;100266.47;;;13.94;63.35
38780;BME280;29273;49.962;9.768;2022-10-31T05:43:48;100259.75;;;13.91;63.41
38780;BME280;29273;49.962;9.768;2022-10-31T05:46:17;100264.25;;;13.91;63.35
38780;BME280;29273;49.962;9.768;2022-10-31T05:49:01;100261.81;;;13.89;63.28
38780;BME280;29273;49.962;9.768;2022-10-31T05:51:45;100271.81;;;13.87;63.39
38780;BME280;29273;49.962;9.768;2022-10-31T05:54:11;100251.56;;;13.86;63.07
38780;BME280;29273;49.962;9.768;2022-10-31T05:56:38;100260.59;;;13.85;63.19
38780;BME280;29273;49.962;9.768;2022-10-31T05:59:04;100265.91;;;13.85;63.63
38780;BME280;29273;49.962;9.768;2022-10-31T06:01:30;100270.41;;;13.84;63.64
38780;BME280;29273;49.962;9.768;2022-10-31T06:03:58;100273.28;;;13.83;63.72
38780;BME280;29273;49.962;9.768;2022-10-31T06:06:24;100272.69;;;13.81;63.61
38780;BME280;29273;49.962;9.768;2022-10-31T06:08:50;100274.53;;;13.80;63.60
38780;BME280;29273;49.962;9.768;2022-10-31T06:11:21;100276.38;;;13.80;63.62
38780;BME280;29273;49.962;9.768;2022-10-31T06:14:01;100279.03;;;13.80;63.70
38780;BME280;29273;49.962;9.768;2022-10-31T06:16:50;100279.25;;;13.78;63.98
38780;BME280;29273;49.962;9.768;2022-10-31T06:19:34;100287.22;;;13.78;63.70
38780;BME280;29273;49.962;9.768;2022-10-31T06:21:59;100289.09;;;13.78;63.99
38780;BME280;29273;49.962;9.768;2022-10-31T06:24:25;100284.56;;;13.78;63.95
38780;BME280;29273;49.962;9.768;2022-10-31T06:26:53;100283.75;;;13.78;63.94
38780;BME280;29273;49.962;9.768;2022-10-31T06:29:20;100285.81;;;13.76;64.21
38780;BME280;29273;49.962;9.768;2022-10-31T06:31:58;100291.97;;;13.76;64.51
38780;BME280;29273;49.962;9.768;2022-10-31T06:34:24;100293.81;;;13.76;64.10
38780;BME280;29273;49.962;9.768;2022-10-31T06:36:49;100287.66;;;13.75;64.29
38780;BME280;29273;49.962;9.768;2022-10-31T06:39:17;100289.50;;;13.75;64.45
38780;BME280;29273;49.962;9.768;2022-10-31T06:41:42;100288.69;;;13.74;64.43
38780;BME280;29273;49.962;9.768;2022-10-31T06:44:09;100289.50;;;13.75;64.73
38780;BME280;29273;49.962;9.768;2022-10-31T06:46:55;100294.03;;;13.74;64.65
38780;BME280;29273;49.962;9.768;2022-10-31T06:49:33;100298.28;;;13.75;64.47
38780;BME280;29273;49.962;9.768;2022-10-31T06:52:01;100291.97;;;13.76;64.66
38780;BME280;29273;49.962;9.768;2022-10-31T06:54:28;100300.75;;;13.77;64.51
38780;BME280;29273;49.962;9.768;2022-10-31T06:56:54;100295.44;;;13.77;64.50
38780;BME280;29273;49.962;9.768;2022-10-31T06:59:20;100299.94;;;13.76;64.87
38780;BME280;29273;49.962;9.768;2022-10-31T07:02:04;100301.59;;;13.77;64.72
38780;BME280;29273;49.962;9.768;2022-10-31T07:04:32;100306.66;;;13.79;64.81
38780;BME280;29273;49.962;9.768;2022-10-31T07:06:57;100303.19;;;13.78;64.64
38780;BME280;29273;49.962;9.768;2022-10-31T07:09:23;100305.88;;;13.78;64.99
38780;BME280;29273;49.962;9.768;2022-10-31T07:11:52;100309.56;;;13.84;64.80
38780;BME280;29273;49.962;9.768;2022-10-31T07:14:17;100312.84;;;13.79;64.73
38780;BME280;29273;49.962;9.768;2022-10-31T07:16:43;100317.13;;;13.80;64.97
38780;BME280;29273;49.962;9.768;2022-10-31T07:19:11;100308.31;;;13.80;64.93
38780;BME280;29273;49.962;9.768;2022-10-31T07:21:37;100308.91;;;13.82;64.72
38780;BME280;29273;49.962;9.768;2022-10-31T07:24:03;100301.97;;;13.81;64.84
38780;BME280;29273;49.962;9.768;2022-10-31T07:27:07;100303.19;;;13.78;65.14
38780;BME280;29273;49.962;9.768;2022-10-31T07:29:33;100308.91;;;13.82;65.29
38780;BME280;29273;49.962;9.768;2022-10-31T07:31:59;100307.31;;;13.81;65.54
38780;BME280;29273;49.962;9.768;2022-10-31T07:34:27;100314.88;;;13.84;65.49
38780;BME280;29273;49.962;9.768;2022-10-31T07:37:11;100310.34;;;13.84;65.83
38780;BME280;29273;49.962;9.768;2022-10-31T07:39:37;100316.06;;;13.88;65.59
38780;BME280;29273;49.962;9.768;2022-10-31T07:42:03;100312.19;;;13.91;65.76
38780;BME280;29273;49.962;9.768;2022-10-31T07:44:29;100310.34;;;13.91;65.59
38780;BME280;29273;49.962;9.768;2022-10-31T07:47:14;100313.81;;;13.92;65.78
38780;BME280;29273;49.962;9.768;2022-10-31T07:50:02;100301.94;;;13.94;65.60
38780;BME280;29273;49.962;9.768;2022-10-31T07:52:46;100313.97;;;13.97;65.60
38780;BME280;29273;49.962;9.768;2022-10-31T07:55:43;100306.59;;;13.99;65.73
38780;BME280;29273;49.962;9.768;2022-10-31T07:58:12;100314.16;;;14.02;65.71
38780;BME280;29273;49.962;9.768;2022-10-31T08:00:41;100311.69;;;14.07;65.67
38780;BME280;29273;49.962;9.768;2022-10-31T08:03:12;100307.16;;;14.14;65.35
38780;BME280;29273;49.962;9.768;2022-10-31T08:05:57;100309.63;;;14.09;65.79
38780;BME280;29273;49.962;9.768;2022-10-31T08:08:57;100312.09;;;14.11;65.46
38780;BME280;29273;49.962;9.768;2022-10-31T08:11:23;100305.31;;;14.15;65.43
38780;BME280;29273;49.962;9.768;2022-10-31T08:13:48;100305.91;;;14.17;65.83
38780;BME280;29273;49.962;9.768;2022-10-31T08:16:14;100303.03;;;14.18;65.62
38780;BME280;29273;49.962;9.768;2022-10-31T08:18:50;100303.41;;;14.22;65.98
38780;BME280;29273;49.962;9.768;2022-10-31T08:21:16;100303.19;;;14.23;65.99
38780;BME280;29273;49.962;9.768;2022-10-31T08:23:43;100303.59;;;14.27;65.83
38780;BME280;29273;49.962;9.768;2022-10-31T08:26:09;100309.53;;;14.29;66.23
38780;BME280;29273;49.962;9.768;2022-10-31T08:28:35;100306.44;;;14.32;65.82
38780;BME280;29273;49.962;9.768;2022-10-31T08:31:01;100304.38;;;14.34;65.89
38780;BME280;29273;49.962;9.768;2022-10-31T08:33:39;100306.84;;;14.36;66.34
38780;BME280;29273;49.962;9.768;2022-10-31T08:36:23;100301.28;;;14.37;66.00
38780;BME280;29273;49.962;9.768;2022-10-31T08:38:55;100301.09;;;14.39;66.24
38780;BME280;29273;49.962;9.768;2022-10-31T08:41:21;100298.81;;;14.42;65.95
38780;BME280;29273;49.962;9.768;2022-10-31T08:43:47;100301.25;;;14.44;66.01
38780;BME280;29273;49.962;9.768;2022-10-31T08:46:14;100302.66;;;14.47;66.21
38780;BME280;29273;49.962;9.768;2022-10-31T08:48:42;100293.63;;;14.48;65.95
38780;BME280;29273;49.962;9.768;2022-10-31T08:51:09;100297.72;;;14.50;66.09
38780;BME280;29273;49.962;9.768;2022-10-31T08:53:35;100290.56;;;14.51;66.35
38780;BME280;29273;49.962;9.768;2022-10-31T08:56:36;100296.91;;;14.50;66.33
38780;BME280;29273;49.962;9.768;2022-10-31T08:59:08;100290.13;;;14.54;66.36
38780;BME280;29273;49.962;9.768;2022-10-31T09:01:56;100293.38;;;14.56;66.56
38780;BME280;29273;49.962;9.768;2022-10-31T09:04:25;100292.78;;;14.60;66.65
38780;BME280;29273;49.962;9.768;2022-10-31T09:06:50;100290.09;;;14.60;66.44
38780;BME280;29273;49.962;9.768;2022-10-31T09:09:16;100288.03;;;14.63;66.46
38780;BME280;29273;49.962;9.768;2022-10-31T09:11:41;100285.16;;;14.64;66.79
38780;BME280;29273;49.962;9.768;2022-10-31T09:14:09;100287.38;;;14.67;66.72
38780;BME280;29273;49.962;9.768;2022-10-31T09:16:58;100286.94;;;14.70;66.86
38780;BME280;29273;49.962;9.768;2022-10-31T09:19:32;100279.56;;;14.72;66.96
38780;BME280;29273;49.962;9.768;2022-10-31T09:21:57;100279.09;;;14.75;67.19
38780;BME280;29273;49.962;9.768;2022-10-31T09:24:23;100277.06;;;14.77;66.93
38780;BME280;29273;49.962;9.768;2022-10-31T09:26:48;100276.63;;;14.80;66.75
38780;BME280;29273;49.962;9.768;2022-10-31T09:29:23;100270.81;;;14.84;66.61
38780;BME280;29273;49.962;9.768;2022-10-31T09:31:56;100272.03;;;14.88;66.91
38780;BME280;29273;49.962;9.768;2022-10-31T09:34:25;100274.50;;;14.89;66.71
38780;BME280;29273;49.962;9.768;2022-10-31T09:37:09;100265.44;;;14.90;66.83
38780;BME280;29273;49.962;9.768;2022-10-31T09:39:34;100262.56;;;14.92;66.60
38780;BME280;29273;49.962;9.768;2022-10-31T09:45:21;100269.25;;;15.01;66.48
38780;BME280;29273;49.962;9.768;2022-10-31T09:56:06;100274.09;;;15.11;66.92
38780;BME280;29273;49.962;9.768;2022-10-31T09:58:33;100262.56;;;14.92;67.29
38780;BME280;29273;49.962;9.768;2022-10-31T10:01:05;100265.25;;;15.10;66.99
38780;BME280;29273;49.962;9.768;2022-10-31T10:03:35;100263.34;;;15.17;66.84
38780;BME280;29273;49.962;9.768;2022-10-31T10:06:27;100266.59;;;15.20;66.82
38780;BME280;29273;49.962;9.768;2022-10-31T10:09:12;100259.84;;;15.17;66.78
38780;BME280;29273;49.962;9.768;2022-10-31T10:12:18;100254.22;;;15.25;66.68
38780;BME280;29273;49.962;9.768;2022-10-31T10:25:54;100249.78;;;15.38;67.25
38780;BME280;29273;49.962;9.768;2022-10-31T10:28:30;100249.78;;;15.38;67.38
38780;BME280;29273;49.962;9.768;2022-10-31T10:31:16;100247.28;;;15.43;66.87
38780;BME280;29273;49.962;9.768;2022-10-31T10:34:13;100239.50;;;15.41;67.00
38780;BME280;29273;49.962;9.768;2022-10-31T10:39:24;100233.63;;;15.51;67.40
38780;BME280;29273;49.962;9.768;2022-10-31T10:41:50;100221.53;;;15.48;67.39
38780;BME280;29273;49.962;9.768;2022-10-31T10:44:40;100226.56;;;15.57;67.25
38780;BME280;29273;49.962;9.768;2022-10-31T10:47:40;100219.16;;;15.59;67.13
38780;BME280;29273;49.962;9.768;2022-10-31T10:50:14;100227.31;;;15.64;67.17
38780;BME280;29273;49.962;9.768;2022-10-31T10:55:31;100218.41;;;15.70;67.09
38780;BME280;29273;49.962;9.768;2022-10-31T10:58:04;100210.97;;;15.72;67.46
38780;BME280;29273;49.962;9.768;2022-10-31T11:00:45;100217.53;;;15.76;67.49
38780;BME280;29273;49.962;9.768;2022-10-31T11:03:13;100210.31;;;15.77;67.24
38780;BME280;29273;49.962;9.768;2022-10-31T11:05:44;100208.84;;;15.81;67.54
38780;BME280;29273;49.962;9.768;2022-10-31T11:08:33;100203.88;;;15.84;67.50
38780;BME280;29273;49.962;9.768;2022-10-31T11:11:09;100195.19;;;15.89;67.67
38780;BME280;29273;49.962;9.768;2022-10-31T11:13:36;100195.41;;;15.87;67.37
38780;BME280;29273;49.962;9.768;2022-10-31T11:18:32;100190.56;;;15.96;67.56
38780;BME280;29273;49.962;9.768;2022-10-31T11:21:00;100183.69;;;16.00;67.41
38780;BME280;29273;49.962;9.768;2022-10-31T11:23:27;100184.53;;;16.01;67.21
38780;BME280;29273;49.962;9.768;2022-10-31T11:26:01;100186.88;;;16.09;67.19
38780;BME280;29273;49.962;9.768;2022-10-31T11:28:28;100176.41;;;16.07;67.22
38780;BME280;29273;49.962;9.768;2022-10-31T11:31:14;100175.75;;;16.12;67.26
38780;BME280;29273;49.962;9.768;2022-10-31T11:36:27;100163.88;;;16.20;67.06
38780;BME280;29273;49.962;9.768;2022-10-31T11:38:54;100157.63;;;16.14;67.20
38780;BME280;29273;49.962;9.768;2022-10-31T11:41:30;100161.69;;;16.28;67.17
38780;BME280;29273;49.962;9.768;2022-10-31T11:44:00;100158.66;;;16.25;67.04
38780;BME280;29273;49.962;9.768;2022-10-31T11:46:35;100155.06;;;16.31;66.92
38780;BME280;29273;49.962;9.768;2022-10-31T11:49:03;100152.06;;;16.27;67.17
38780;BME280;29273;49.962;9.768;2022-10-31T11:51:32;100142.53;;;16.32;67.22
38780;BME280;29273;49.962;9.768;2022-10-31T11:54:00;100146.03;;;16.32;67.13
38780;BME280;29273;49.962;9.768;2022-10-31T11:56:36;100142.53;;;16.32;67.01
38780;BME280;29273;49.962;9.768;2022-10-31T11:59:14;100136.25;;;16.38;67.23
38780;BME280;29273;49.962;9.768;2022-10-31T12:01:47;100136.84;;;16.40;67.04
38780;BME280;29273;49.962;9.768;2022-10-31T12:04:13;100130.34;;;16.36;67.11
38780;BME280;29273;49.962;9.768;2022-10-31T12:06:41;100127.19;;;16.39;67.09
38780;BME280;29273;49.962;9.768;2022-10-31T12:09:28;100124.88;;;16.42;67.25
38780;BME280;29273;49.962;9.768;2022-10-31T12:17:19;100117.53;;;16.50;67.65
38780;BME280;29273;49.962;9.768;2022-10-31T12:28:24;100102.31;;;16.50;67.75
38780;BME280;29273;49.962;9.768;2022-10-31T12:31:08;100098.47;;;16.58;67.60
38780;BME280;29273;49.962;9.768;2022-10-31T12:43:16;100070.09;;;16.57;67.89
38780;BME280;29273;49.962;9.768;2022-10-31T12:46:00;100057.44;;;16.64;67.90
38780;BME280;29273;49.962;9.768;2022-10-31T12:51:24;100066.25;;;16.64;67.55
38780;BME280;29273;49.962;9.768;2022-10-31T12:59:57;100039.97;;;16.73;68.02
38780;BME280;29273;49.962;9.768;2022-10-31T13:02:23;100028.22;;;16.74;67.87
38780;BME280;29273;49.962;9.768;2022-10-31T13:07:37;100022.97;;;16.79;68.14
38780;BME280;29273;49.962;9.768;2022-10-31T13:10:15;100020.88;;;16.81;68.07
38780;BME280;29273;49.962;9.768;2022-10-31T13:12:42;100020.06;;;16.81;68.28
38780;BME280;29273;49.962;9.768;2022-10-31T13:18:14;100018.09;;;16.88;68.01
38780;BME280;29273;49.962;9.768;2022-10-31T13:20:46;100021.34;;;16.90;68.38
38780;BME280;29273;49.962;9.768;2022-10-31T13:23:28;100017.16;;;16.94;68.16
38780;BME280;29273;49.962;9.768;2022-10-31T13:25:56;100015.75;;;16.92;68.65
38780;BME280;29273;49.962;9.768;2022-10-31T13:28:35;100009.44;;;16.98;68.09
38780;BME280;29273;49.962;9.768;2022-10-31T13:31:02;100002.97;;;16.94;68.29
38780;BME280;29273;49.962;9.768;2022-10-31T13:33:37;100001.75;;;17.01;68.24
38780;BME280;29273;49.962;9.768;2022-10-31T13:38:41;99995.38;;;17.02;68.48
38780;BME280;29273;49.962;9.768;2022-10-31T13:41:21;99995.22;;;17.09;68.21
38780;BME280;29273;49.962;9.768;2022-10-31T13:48:48;99973.47;;;17.06;68.61
38780;BME280;29273;49.962;9.768;2022-10-31T13:51:24;99966.34;;;17.11;67.93
38780;BME280;29273;49.962;9.768;2022-10-31T13:59:04;99960.19;;;17.11;67.93
38780;BME280;29273;49.962;9.768;2022-10-31T14:01:32;99957.44;;;17.06;68.47
38780;BME280;29273;49.962;9.768;2022-10-31T14:04:07;99954.84;;;17.11;68.14
38780;BME280;29273;49.962;9.768;2022-10-31T14:06:54;99937.16;;;17.10;68.52
38780;BME280;29273;49.962;9.768;2022-10-31T14:09:41;99939.50;;;17.06;68.04
38780;BME280;29273;49.962;9.768;2022-10-31T14:17:52;99933.34;;;17.06;68.32
38780;BME280;29273;49.962;9.768;2022-10-31T14:22:45;99925.81;;;17.02;68.90
38780;BME280;29273;49.962;9.768;2022-10-31T14:25:34;99932.28;;;17.07;68.40
38780;BME280;29273;49.962;9.768;2022-10-31T14:28:05;99919.97;;;17.06;68.84
38780;BME280;29273;49.962;9.768;2022-10-31T14:30:50;99926.59;;;16.86;68.70
38780;BME280;29273;49.962;9.768;2022-10-31T14:33:18;99929.03;;;17.05;68.98
38780;BME280;29273;49.962;9.768;2022-10-31T14:36:08;99919.38;;;17.04;68.61
38780;BME280;29273;49.962;9.768;2022-10-31T14:41:15;99913.47;;;17.01;69.41
38780;BME280;29273;49.962;9.768;2022-10-31T14:51:46;99924.84;;;17.09;68.88
38780;BME280;29273;49.962;9.768;2022-10-31T14:54:20;99924.59;;;17.10;68.63
38780;BME280;29273;49.962;9.768;2022-10-31T14:56:55;99925.66;;;17.09;69.06
38780;BME280;29273;49.962;9.768;2022-10-31T14:59:27;99912.03;;;17.11;68.82
38780;BME280;29273;49.962;9.768;2022-10-31T15:02:00;99912.03;;;17.11;68.97
38780;BME280;29273;49.962;9.768;2022-10-31T15:04:28;99904.25;;;17.09;69.05
38780;BME280;29273;49.962;9.768;2022-10-31T15:07:05;99907.63;;;17.05;69.18
38780;BME280;29273;49.962;9.768;2022-10-31T15:09:36;99883.88;;;17.08;68.66
38780;BME280;29273;49.962;9.768;2022-10-31T15:12:28;99871.22;;;17.04;68.27
38780;BME280;29273;49.962;9.768;2022-10-31T15:14:54;99875.44;;;16.99;69.08
38780;BME280;29273;49.962;9.768;2022-10-31T15:17:22;99880.00;;;16.99;68.75